Decoded Metar for RCNN (TAINAN in TAIWAN) (IATA:TNN) | Meteo·Mobile Aviation Weather
aviador You're here:

RCNN Decoded Metar

TAINAN in TAIWAN
Report Time2018-10-19 08:30:00
UTC Time2018-10-19 08:46:02
Flight Rules vfr VFR
Wind330° at 06 kt
W.Decomp.*RWY 36: 5.3 kt HW 2.7 kt LCW
W.Rank330° ranks 9
Current wind is below 330° avg. (6.6)
Visibility9000 m
Phenomena:N/A
Clouds:Few 012 Hf
Scattered 100 Hf
Expected CloudBase > 2,800 ft AGL from Temp-Dew spread
CeilingNone
Temp27°C (ISA +12)
Dew Point20°C (66% RH)
Heat Index28.5°C
QNH1015 hPa
Density Alt1,703 ft
Elevation62 ft
Report Wrong Elevation
Raw Report
RCNN 190830Z 33006KT 9000 FEW012 SCT100 27/20 Q1015 NOSIG RMK
A2998=

Extra information for RCNN:More info

Metar Taf Metar & Taf Last 4 Metars F.Rules Stats Wind Profile Meteogram Temp Stats Airport Information Weather charts Add Link Nearby VenuesMetar ALERT Operation Metar Decoded Social comments